Terminal Aerodrome Forecast
Issued by NWS

Home | Current Version | Previous Version | Text Only | Print | Product List | Glossary On
Versions: 1 2 3 4 5 6 7 8 9 10 11 12 13 14 15 16 17
799
FTUS46 KSEW 181748
TAFHQM
TAF
KHQM 181748Z 1818/1918 08010KT P6SM SCT045 BKN150
     FM182200 14008KT P6SM BKN150 OVC200
     FM190900 12013G20KT P6SM VCSH SCT015 OVC030
     FM191200 16020G30KT 6SM -RA BR SCT008 BKN015 OVC025=

USA.gov is the U.S. government's official web portal to all federal, state and local government web resources and services.